createdAt,value
2024-03-14T00:01:21.638Z,58.55
2024-03-14T00:03:48.228Z,58.63
2024-03-14T00:06:14.882Z,58.79
2024-03-14T00:08:41.480Z,58.55
2024-03-14T00:11:08.071Z,58.43
2024-03-14T00:13:34.772Z,58.04
2024-03-14T00:16:01.435Z,58.09
2024-03-14T00:18:28.125Z,58.07
2024-03-14T00:20:54.903Z,59.55
2024-03-14T00:23:21.477Z,58.05
2024-03-14T00:25:48.062Z,58.49
2024-03-14T00:28:14.715Z,59.46
2024-03-14T00:30:41.335Z,59.60
2024-03-14T00:33:08.030Z,59.29
2024-03-14T00:35:34.709Z,59.92
2024-03-14T00:38:01.403Z,60.20
2024-03-14T00:40:27.964Z,60.34
2024-03-14T00:42:54.509Z,59.89
2024-03-14T00:45:21.154Z,59.38
2024-03-14T00:47:47.942Z,59.74
2024-03-14T00:50:14.761Z,61.18
2024-03-14T00:52:41.399Z,61.88
2024-03-14T00:55:08.007Z,61.56
2024-03-14T00:57:34.694Z,62.04
2024-03-14T01:00:01.524Z,62.08
2024-03-14T01:02:28.209Z,62.06
2024-03-14T01:04:54.757Z,61.58
2024-03-14T01:07:21.374Z,62.11
2024-03-14T01:09:48.121Z,61.66
2024-03-14T01:12:14.731Z,62.23
2024-03-14T01:14:41.360Z,62.44
2024-03-14T01:17:08.017Z,62.91
2024-03-14T01:19:34.598Z,61.96
2024-03-14T01:22:01.264Z,61.31
2024-03-14T01:24:27.889Z,61.62
2024-03-14T01:26:54.642Z,60.67
2024-03-14T01:29:21.276Z,60.07
2024-03-14T01:31:47.873Z,59.87
2024-03-14T01:34:14.434Z,59.97
2024-03-14T01:36:41.444Z,60.16
2024-03-14T01:39:07.936Z,60.14
2024-03-14T01:41:34.404Z,59.83
2024-03-14T01:44:01.073Z,60.35
2024-03-14T01:46:27.533Z,59.82
2024-03-14T01:48:54.097Z,59.94
2024-03-14T01:51:20.572Z,59.82
2024-03-14T01:53:47.027Z,59.86
2024-03-14T01:56:13.501Z,60.00
2024-03-14T01:58:39.883Z,59.48
2024-03-14T02:01:06.332Z,59.96
2024-03-14T02:03:32.778Z,60.36
2024-03-14T02:05:59.287Z,60.87
2024-03-14T02:08:25.777Z,60.48
2024-03-14T02:10:52.179Z,60.82
2024-03-14T02:13:18.603Z,61.36
2024-03-14T02:15:45.075Z,62.43
2024-03-14T02:18:11.757Z,62.21
2024-03-14T02:20:38.198Z,61.72
2024-03-14T02:23:04.615Z,62.17
2024-03-14T02:25:31.054Z,62.53
2024-03-14T02:27:57.474Z,61.92
2024-03-14T02:30:23.933Z,61.74
2024-03-14T02:32:50.438Z,61.73
2024-03-14T02:35:17.092Z,61.57
2024-03-14T02:37:43.628Z,61.31
2024-03-14T02:40:10.191Z,61.17
2024-03-14T02:42:36.672Z,60.92
2024-03-14T02:45:03.170Z,61.61
2024-03-14T02:47:29.667Z,62.23
2024-03-14T02:49:56.089Z,61.78
2024-03-14T02:52:22.493Z,62.23
2024-03-14T02:54:48.888Z,61.90
2024-03-14T02:57:15.412Z,61.81
2024-03-14T02:59:41.863Z,61.77
2024-03-14T03:02:08.327Z,61.09
2024-03-14T03:04:34.750Z,60.58
2024-03-14T03:07:01.177Z,60.73
2024-03-14T03:09:27.647Z,60.65
2024-03-14T03:11:54.156Z,60.45
2024-03-14T03:14:21.956Z,60.30
2024-03-14T03:16:48.449Z,60.57
2024-03-14T03:19:14.856Z,61.01
2024-03-14T03:21:41.265Z,61.10
2024-03-14T03:24:07.735Z,60.93
2024-03-14T03:26:34.170Z,61.26
2024-03-14T03:29:00.584Z,61.33
2024-03-14T03:31:26.987Z,61.50
2024-03-14T03:33:53.479Z,61.14
2024-03-14T03:36:19.989Z,61.55
2024-03-14T03:38:46.484Z,61.08
2024-03-14T03:41:13.081Z,61.31
2024-03-14T03:43:39.712Z,61.29
2024-03-14T03:46:06.343Z,61.18
2024-03-14T03:48:32.958Z,61.05
2024-03-14T03:50:59.588Z,61.47
2024-03-14T03:53:26.132Z,61.38
2024-03-14T03:55:52.734Z,61.78
2024-03-14T03:58:19.352Z,61.67
2024-03-14T04:00:45.947Z,63.72
2024-03-14T04:03:12.670Z,63.49
2024-03-14T04:05:39.398Z,63.45
2024-03-14T04:08:06.070Z,63.21
2024-03-14T04:10:32.696Z,62.78
2024-03-14T04:12:59.249Z,62.29
2024-03-14T04:15:25.967Z,62.56
2024-03-14T04:17:52.655Z,62.83
2024-03-14T04:20:19.242Z,62.01
2024-03-14T04:22:45.866Z,62.02
2024-03-14T04:25:12.472Z,61.65
2024-03-14T04:27:39.127Z,61.69
2024-03-14T04:30:05.777Z,61.82
2024-03-14T04:32:32.324Z,61.83
2024-03-14T04:34:58.860Z,62.41
2024-03-14T04:37:25.431Z,62.30
2024-03-14T04:39:52.001Z,62.48
2024-03-14T04:42:18.640Z,63.21
2024-03-14T04:44:45.181Z,62.61
2024-03-14T04:47:11.850Z,62.52
2024-03-14T04:49:38.405Z,62.12
2024-03-14T04:52:05.025Z,62.35
2024-03-14T04:54:31.685Z,62.11
2024-03-14T04:56:58.366Z,62.25
2024-03-14T04:59:24.996Z,62.06
2024-03-14T05:01:51.678Z,61.89
2024-03-14T05:04:18.226Z,61.73
2024-03-14T05:06:44.801Z,61.88
2024-03-14T05:09:11.443Z,61.80
2024-03-14T05:11:38.095Z,61.85
2024-03-14T05:14:04.748Z,61.47
2024-03-14T05:16:31.450Z,62.48
2024-03-14T05:18:58.263Z,62.35
2024-03-14T05:21:25.010Z,62.24
2024-03-14T05:23:51.671Z,62.17
2024-03-14T05:26:18.274Z,63.20
2024-03-14T05:28:44.818Z,63.06
2024-03-14T05:31:11.365Z,63.45
2024-03-14T05:33:38.136Z,62.72
2024-03-14T05:36:04.772Z,62.72
2024-03-14T05:38:31.420Z,66.11
2024-03-14T05:40:57.973Z,67.13
2024-03-14T05:43:24.512Z,69.29
2024-03-14T05:45:51.109Z,69.68
2024-03-14T05:48:17.809Z,68.02
2024-03-14T05:50:44.417Z,66.90
2024-03-14T05:53:11.041Z,65.89
2024-03-14T05:55:37.745Z,64.90
2024-03-14T05:58:04.403Z,64.52
2024-03-14T06:00:31.220Z,65.34
2024-03-14T06:02:58.023Z,64.65
2024-03-14T06:05:24.725Z,65.43
2024-03-14T06:07:51.261Z,65.11
2024-03-14T06:10:17.861Z,65.19
2024-03-14T06:12:44.483Z,65.96
2024-03-14T06:15:11.114Z,66.24
2024-03-14T06:17:37.944Z,66.20
2024-03-14T06:20:04.612Z,65.65
2024-03-14T06:22:31.164Z,66.14
2024-03-14T06:24:57.829Z,66.44
2024-03-14T06:27:24.483Z,65.63
2024-03-14T06:29:51.130Z,65.57
2024-03-14T06:32:17.763Z,65.23
2024-03-14T06:34:44.444Z,65.27
2024-03-14T06:37:11.048Z,64.68
2024-03-14T06:39:39.692Z,64.11
2024-03-14T06:42:06.692Z,64.15
2024-03-14T06:44:35.978Z,64.63
2024-03-14T06:47:02.610Z,66.20
2024-03-14T06:49:29.212Z,65.83
2024-03-14T06:51:55.780Z,65.12
2024-03-14T06:54:22.387Z,64.33
2024-03-14T06:56:49.216Z,65.33
2024-03-14T06:59:15.954Z,65.25
2024-03-14T07:01:42.610Z,64.45
2024-03-14T07:04:09.463Z,65.51
2024-03-14T07:06:36.326Z,65.33
2024-03-14T07:09:03.171Z,66.60
2024-03-14T07:11:30.042Z,66.53
2024-03-14T07:13:56.680Z,67.94
2024-03-14T07:16:23.285Z,67.89
2024-03-14T07:18:49.981Z,69.24
2024-03-14T07:21:16.723Z,70.13
2024-03-14T07:23:43.463Z,70.05
2024-03-14T07:26:10.162Z,70.25
2024-03-14T07:28:36.741Z,69.08
2024-03-14T07:31:11.765Z,67.77
2024-03-14T07:33:38.438Z,67.72
2024-03-14T07:36:05.032Z,67.38
2024-03-14T07:38:31.646Z,68.35
2024-03-14T07:40:58.232Z,69.87
2024-03-14T07:43:24.860Z,69.65
2024-03-14T07:45:51.478Z,70.56
2024-03-14T07:48:18.176Z,70.73
2024-03-14T07:50:44.886Z,69.35
2024-03-14T07:53:11.633Z,68.40
2024-03-14T07:55:38.331Z,66.90
2024-03-14T07:58:04.994Z,66.70
2024-03-14T08:00:31.630Z,65.36
2024-03-14T08:02:58.881Z,64.12
2024-03-14T08:05:25.521Z,63.85
2024-03-14T08:08:01.408Z,65.52
2024-03-14T08:10:36.857Z,65.31
2024-03-14T08:13:03.582Z,65.31
2024-03-14T08:15:30.234Z,66.86
2024-03-14T08:17:56.877Z,68.27
2024-03-14T08:20:23.620Z,67.59
2024-03-14T08:22:50.307Z,68.52
2024-03-14T08:25:19.448Z,67.62
2024-03-14T08:27:46.041Z,66.99
2024-03-14T08:30:12.911Z,65.38
2024-03-14T08:32:39.640Z,66.36
2024-03-14T08:35:06.578Z,66.01
2024-03-14T08:37:33.401Z,64.79
2024-03-14T08:39:59.836Z,65.12
2024-03-14T08:42:26.284Z,63.68
2024-03-14T08:44:53.529Z,63.77
2024-03-14T08:47:20.777Z,64.00
2024-03-14T08:49:47.215Z,63.51
2024-03-14T08:52:16.656Z,63.66
2024-03-14T08:54:43.147Z,64.48
2024-03-14T08:57:09.799Z,63.53
2024-03-14T08:59:36.245Z,62.34
2024-03-14T09:02:02.767Z,61.88
2024-03-14T09:04:29.193Z,62.32
2024-03-14T09:06:55.632Z,62.00
2024-03-14T09:09:22.061Z,62.17
2024-03-14T09:11:48.569Z,61.17
2024-03-14T09:14:15.127Z,62.94
2024-03-14T09:16:41.690Z,62.11
2024-03-14T09:19:08.534Z,59.57
2024-03-14T09:21:35.234Z,60.02
2024-03-14T09:24:01.774Z,59.44
2024-03-14T09:26:28.297Z,58.88
2024-03-14T09:28:54.752Z,57.52
2024-03-14T09:31:21.382Z,55.89
2024-03-14T09:33:48.166Z,56.03
2024-03-14T09:36:15.397Z,51.58
2024-03-14T09:38:42.227Z,45.47
2024-03-14T09:41:14.510Z,43.68
2024-03-14T09:43:48.198Z,41.67
2024-03-14T09:46:14.845Z,39.82
2024-03-14T09:48:41.472Z,38.54
2024-03-14T09:51:08.177Z,38.54
2024-03-14T09:53:34.815Z,36.90
2024-03-14T09:56:01.383Z,37.52
2024-03-14T09:58:27.982Z,36.91
2024-03-14T10:00:54.775Z,37.12
2024-03-14T10:03:21.494Z,37.01
2024-03-14T10:05:48.156Z,35.21
2024-03-14T10:08:14.899Z,32.84
2024-03-14T10:10:41.709Z,32.53
2024-03-14T10:13:08.423Z,33.44
2024-03-14T10:15:34.964Z,32.52
2024-03-14T10:18:01.868Z,33.70
2024-03-14T10:20:28.343Z,35.28
2024-03-14T10:22:54.891Z,33.46
2024-03-14T10:25:21.364Z,33.08
2024-03-14T10:27:53.566Z,32.80
2024-03-14T10:30:27.872Z,31.86
2024-03-14T10:32:54.412Z,33.04
2024-03-14T10:35:21.013Z,32.77
2024-03-14T10:37:47.586Z,31.07
2024-03-14T10:40:14.000Z,31.13
2024-03-14T10:42:40.472Z,32.79
2024-03-14T10:45:07.132Z,30.72
2024-03-14T10:47:33.646Z,31.31
2024-03-14T10:50:00.152Z,28.97
2024-03-14T10:52:26.655Z,30.71
2024-03-14T10:54:53.289Z,31.37
2024-03-14T10:57:19.824Z,32.06
2024-03-14T10:59:46.330Z,31.20
2024-03-14T11:02:12.813Z,32.74
2024-03-14T11:04:42.203Z,31.98
2024-03-14T11:07:08.636Z,30.33
2024-03-14T11:09:35.461Z,30.88
2024-03-14T11:12:02.223Z,31.38
2024-03-14T11:14:28.801Z,30.94
2024-03-14T11:16:57.579Z,29.22
2024-03-14T11:19:25.689Z,30.32
2024-03-14T11:21:52.359Z,30.62
2024-03-14T11:24:19.030Z,29.71
2024-03-14T11:26:45.656Z,32.17
2024-03-14T11:29:12.237Z,31.17
2024-03-14T11:31:38.812Z,33.85
2024-03-14T11:34:05.861Z,31.48
2024-03-14T11:36:32.836Z,33.59
2024-03-14T11:38:59.807Z,31.37
2024-03-14T11:41:26.382Z,34.61
2024-03-14T11:43:53.035Z,31.11
2024-03-14T11:46:19.671Z,38.20
2024-03-14T11:48:46.351Z,40.25
2024-03-14T11:51:13.109Z,41.50
2024-03-14T11:53:39.823Z,42.22
2024-03-14T11:56:11.342Z,43.83
2024-03-14T11:58:39.211Z,44.50
2024-03-14T12:01:06.181Z,44.56
2024-03-14T12:03:33.041Z,44.70
2024-03-14T12:05:59.861Z,45.54
2024-03-14T12:08:26.570Z,44.76
2024-03-14T12:10:54.412Z,44.60
2024-03-14T12:13:23.708Z,45.20
2024-03-14T12:15:50.371Z,44.28
2024-03-14T12:18:17.048Z,43.36
2024-03-14T12:20:43.790Z,42.72
2024-03-14T12:23:10.248Z,44.26
2024-03-14T12:25:36.757Z,44.53
2024-03-14T12:28:03.172Z,43.16
2024-03-14T12:30:29.641Z,45.22
2024-03-14T12:32:56.279Z,44.82
2024-03-14T12:35:23.045Z,43.40
2024-03-14T12:37:49.462Z,44.46
2024-03-14T12:40:18.471Z,43.83
2024-03-14T12:42:46.745Z,43.29
2024-03-14T12:45:13.224Z,44.67
2024-03-14T12:47:39.680Z,43.95
2024-03-14T12:50:06.238Z,45.93
2024-03-14T12:52:32.630Z,47.29
2024-03-14T12:54:59.072Z,46.08
2024-03-14T12:57:25.590Z,46.11
2024-03-14T12:59:52.014Z,45.49
2024-03-14T13:02:18.540Z,44.57
2024-03-14T13:04:44.965Z,43.35
2024-03-14T13:07:11.663Z,42.87
2024-03-14T13:09:38.246Z,43.66
2024-03-14T13:12:05.004Z,43.11
2024-03-14T13:14:31.678Z,42.67
2024-03-14T13:16:58.154Z,43.34
2024-03-14T13:19:24.670Z,42.22
2024-03-14T13:21:51.437Z,44.51
2024-03-14T13:24:18.809Z,44.51
2024-03-14T13:26:47.554Z,42.57
2024-03-14T13:29:14.146Z,41.50
2024-03-14T13:31:40.696Z,42.50
2024-03-14T13:34:07.586Z,41.43
2024-03-14T13:36:34.434Z,41.60
2024-03-14T13:39:01.222Z,41.66
2024-03-14T13:41:29.963Z,41.66
2024-03-14T13:43:56.718Z,41.67
2024-03-14T13:46:23.368Z,42.00
2024-03-14T13:48:50.044Z,42.04
2024-03-14T13:51:16.744Z,41.59
2024-03-14T13:53:43.407Z,42.48
2024-03-14T13:56:10.032Z,41.85
2024-03-14T13:58:36.646Z,41.97
2024-03-14T14:01:03.365Z,42.38
2024-03-14T14:03:30.076Z,42.11
2024-03-14T14:05:57.778Z,40.99
2024-03-14T14:08:24.770Z,40.14
2024-03-14T14:10:51.620Z,41.07
2024-03-14T14:13:18.326Z,41.22
2024-03-14T14:15:45.306Z,40.39
2024-03-14T14:18:12.260Z,41.30
2024-03-14T14:20:38.961Z,40.35
2024-03-14T14:23:05.790Z,40.60
2024-03-14T14:25:32.545Z,41.19
2024-03-14T14:27:59.276Z,40.75
2024-03-14T14:30:26.143Z,40.57
2024-03-14T14:32:52.998Z,41.22
2024-03-14T14:35:19.685Z,41.38
2024-03-14T14:37:46.704Z,41.79
2024-03-14T14:40:15.682Z,41.29
2024-03-14T14:42:42.526Z,41.02
2024-03-14T14:45:09.247Z,41.55
2024-03-14T14:47:35.864Z,41.29
2024-03-14T14:50:02.525Z,41.77
2024-03-14T14:52:29.273Z,40.92
2024-03-14T14:54:55.874Z,40.51
2024-03-14T14:57:22.457Z,40.12
2024-03-14T14:59:51.624Z,39.77
2024-03-14T15:02:18.195Z,38.55
2024-03-14T15:04:44.854Z,38.31
2024-03-14T15:07:11.670Z,37.66
2024-03-14T15:09:38.301Z,37.10
2024-03-14T15:12:05.350Z,38.78
2024-03-14T15:14:32.102Z,38.82
2024-03-14T15:16:58.781Z,37.98
2024-03-14T15:19:25.454Z,37.93
2024-03-14T15:21:51.979Z,37.31
2024-03-14T15:24:18.426Z,36.75
2024-03-14T15:26:44.937Z,37.95
2024-03-14T15:29:14.084Z,37.21
2024-03-14T15:31:40.501Z,37.07
2024-03-14T15:34:07.141Z,37.28
2024-03-14T15:36:33.613Z,36.61
2024-03-14T15:39:00.033Z,37.31
2024-03-14T15:41:26.571Z,37.48
2024-03-14T15:43:53.059Z,37.35
2024-03-14T15:46:19.746Z,37.27
2024-03-14T15:48:46.428Z,37.98
2024-03-14T15:51:12.965Z,37.84
2024-03-14T15:53:39.475Z,37.94
2024-03-14T15:56:05.905Z,38.53
2024-03-14T15:58:32.310Z,40.41
2024-03-14T16:00:58.838Z,41.86
2024-03-14T16:03:25.464Z,40.86
2024-03-14T16:05:51.920Z,40.72
2024-03-14T16:08:26.359Z,40.42
2024-03-14T16:10:58.370Z,39.45
2024-03-14T16:13:24.909Z,39.17
2024-03-14T16:15:51.646Z,38.96
2024-03-14T16:18:18.523Z,40.58
2024-03-14T16:20:49.172Z,39.24
2024-03-14T16:23:16.129Z,39.63
2024-03-14T16:25:42.763Z,41.37
2024-03-14T16:28:09.325Z,41.73
2024-03-14T16:30:36.139Z,42.45
2024-03-14T16:33:03.016Z,41.98
2024-03-14T16:35:30.340Z,41.39
2024-03-14T16:37:57.566Z,41.34
2024-03-14T16:40:24.230Z,40.19
2024-03-14T16:42:53.130Z,41.44
2024-03-14T16:45:19.910Z,41.72
2024-03-14T16:47:46.578Z,39.33
2024-03-14T16:50:14.616Z,39.63
2024-03-14T16:52:41.658Z,38.86
2024-03-14T16:55:08.366Z,38.79
2024-03-14T16:57:34.985Z,40.30
2024-03-14T17:00:01.680Z,40.22
2024-03-14T17:02:28.352Z,38.97
2024-03-14T17:04:54.911Z,39.53
2024-03-14T17:07:21.529Z,41.03
2024-03-14T17:09:48.330Z,40.25
2024-03-14T17:12:14.966Z,39.72
2024-03-14T17:14:41.591Z,41.24
2024-03-14T17:17:12.736Z,40.89
2024-03-14T17:19:39.975Z,41.91
2024-03-14T17:22:06.658Z,42.01
2024-03-14T17:24:33.318Z,41.83
2024-03-14T17:27:00.092Z,42.28
2024-03-14T17:29:26.747Z,42.65
2024-03-14T17:31:53.359Z,42.71
2024-03-14T17:34:20.175Z,42.21
2024-03-14T17:36:46.824Z,41.38
2024-03-14T17:39:13.393Z,41.19
2024-03-14T17:41:39.829Z,41.25
2024-03-14T17:44:06.271Z,39.38
2024-03-14T17:46:32.788Z,40.77
2024-03-14T17:48:59.277Z,40.73
2024-03-14T17:51:25.816Z,40.50
2024-03-14T17:53:52.331Z,39.81
2024-03-14T17:56:25.407Z,41.21
2024-03-14T17:58:56.768Z,40.84
2024-03-14T18:01:23.267Z,40.00
2024-03-14T18:03:49.756Z,41.49
2024-03-14T18:06:16.251Z,43.86
2024-03-14T18:08:42.787Z,43.27
2024-03-14T18:11:09.265Z,43.42
2024-03-14T18:13:35.859Z,43.41
2024-03-14T18:16:04.922Z,43.94
2024-03-14T18:18:31.612Z,44.31
2024-03-14T18:20:58.156Z,43.33
2024-03-14T18:23:24.615Z,42.68
2024-03-14T18:25:51.180Z,42.17
2024-03-14T18:28:17.595Z,42.36
2024-03-14T18:30:44.138Z,42.41
2024-03-14T18:33:10.790Z,42.04
2024-03-14T18:35:37.327Z,42.06
2024-03-14T18:38:04.211Z,40.83
2024-03-14T18:40:30.795Z,41.22
2024-03-14T18:42:57.364Z,42.06
2024-03-14T18:45:24.025Z,42.89
2024-03-14T18:47:50.737Z,43.09
2024-03-14T18:50:17.337Z,43.70
2024-03-14T18:52:43.906Z,42.20
2024-03-14T18:55:11.154Z,42.41
2024-03-14T18:57:41.287Z,41.57
2024-03-14T19:00:08.187Z,42.13
2024-03-14T19:02:35.241Z,44.23
2024-03-14T19:05:02.019Z,43.85
2024-03-14T19:07:28.686Z,43.70
2024-03-14T19:09:55.423Z,43.64
2024-03-14T19:12:22.136Z,43.06
2024-03-14T19:14:49.238Z,43.74
2024-03-14T19:17:19.521Z,43.77
2024-03-14T19:19:48.953Z,44.45
2024-03-14T19:22:15.614Z,44.32
2024-03-14T19:24:42.269Z,44.73
2024-03-14T19:27:08.981Z,44.34
2024-03-14T19:29:35.741Z,44.38
2024-03-14T19:32:02.355Z,43.52
2024-03-14T19:34:30.444Z,43.92
2024-03-14T19:37:00.405Z,42.81
2024-03-14T19:39:27.240Z,43.51
2024-03-14T19:41:54.117Z,43.38
2024-03-14T19:44:20.708Z,43.13
2024-03-14T19:46:47.275Z,43.33
2024-03-14T19:49:20.192Z,44.11
2024-03-14T19:51:46.905Z,44.44
2024-03-14T19:54:14.018Z,43.75
2024-03-14T19:56:40.673Z,43.87
2024-03-14T19:59:07.490Z,43.86
2024-03-14T20:01:34.269Z,43.89
2024-03-14T20:04:01.104Z,43.49
2024-03-14T20:06:28.058Z,44.08
2024-03-14T20:08:54.782Z,44.26
2024-03-14T20:11:21.401Z,43.99
2024-03-14T20:13:48.068Z,44.12
2024-03-14T20:16:15.142Z,43.38
2024-03-14T20:18:41.852Z,43.48
2024-03-14T20:21:08.910Z,44.31
2024-03-14T20:23:35.789Z,43.98
2024-03-14T20:26:04.566Z,43.61
2024-03-14T20:28:31.134Z,43.89
2024-03-14T20:30:57.909Z,43.83
2024-03-14T20:33:24.949Z,44.20
2024-03-14T20:35:51.966Z,44.23
2024-03-14T20:38:18.600Z,44.07
2024-03-14T20:40:52.458Z,44.84
2024-03-14T20:43:19.891Z,44.50
2024-03-14T20:45:46.563Z,43.60
2024-03-14T20:48:13.361Z,43.29
2024-03-14T20:50:43.690Z,44.41
2024-03-14T20:53:10.329Z,43.89
2024-03-14T20:55:37.222Z,44.39
2024-03-14T20:58:04.173Z,45.00
2024-03-14T21:00:30.979Z,44.74
2024-03-14T21:02:57.706Z,44.90
2024-03-14T21:05:24.299Z,44.69
2024-03-14T21:07:51.472Z,44.53
2024-03-14T21:10:20.168Z,44.80
2024-03-14T21:12:48.385Z,45.47
2024-03-14T21:15:19.174Z,44.62
2024-03-14T21:17:45.692Z,44.07
2024-03-14T21:20:12.151Z,44.59
2024-03-14T21:22:39.696Z,44.50
2024-03-14T21:25:06.173Z,44.42
2024-03-14T21:27:32.733Z,43.80
2024-03-14T21:29:59.223Z,45.06
2024-03-14T21:32:25.736Z,44.63
2024-03-14T21:34:52.236Z,44.62
2024-03-14T21:37:18.690Z,44.33
2024-03-14T21:39:45.441Z,44.43
2024-03-14T21:42:12.049Z,44.58
2024-03-14T21:44:40.715Z,44.77
2024-03-14T21:47:07.193Z,44.90
2024-03-14T21:49:33.622Z,44.42
2024-03-14T21:52:00.114Z,44.53
2024-03-14T21:54:26.564Z,45.44
2024-03-14T21:56:53.007Z,45.15
2024-03-14T21:59:19.579Z,45.48
2024-03-14T22:01:46.060Z,45.30
2024-03-14T22:04:12.697Z,46.14
2024-03-14T22:06:39.320Z,45.29
2024-03-14T22:09:05.947Z,45.48
2024-03-14T22:11:32.648Z,45.89
2024-03-14T22:13:59.275Z,45.79
2024-03-14T22:16:25.871Z,45.96
2024-03-14T22:18:52.499Z,45.54
2024-03-14T22:21:19.209Z,46.18
2024-03-14T22:23:45.851Z,46.12
2024-03-14T22:26:12.405Z,46.52
2024-03-14T22:28:38.948Z,46.92
2024-03-14T22:31:11.368Z,47.14
2024-03-14T22:33:39.118Z,46.74
2024-03-14T22:36:05.854Z,46.85
2024-03-14T22:38:32.463Z,46.91
2024-03-14T22:40:59.005Z,46.96
2024-03-14T22:43:25.548Z,47.42
2024-03-14T22:45:52.220Z,47.85
2024-03-14T22:48:18.898Z,47.96
2024-03-14T22:50:45.637Z,48.44
2024-03-14T22:53:12.204Z,46.79
2024-03-14T22:55:38.779Z,47.71
2024-03-14T22:58:05.349Z,46.91
2024-03-14T23:00:31.953Z,46.02
2024-03-14T23:02:58.923Z,45.64
2024-03-14T23:05:25.534Z,44.73
2024-03-14T23:07:52.133Z,45.32
2024-03-14T23:10:18.738Z,44.85
2024-03-14T23:12:45.383Z,45.18
2024-03-14T23:15:12.069Z,45.06
2024-03-14T23:17:38.719Z,44.59
2024-03-14T23:20:05.413Z,45.36
2024-03-14T23:22:32.028Z,45.26
2024-03-14T23:24:58.583Z,44.73
2024-03-14T23:27:25.169Z,45.07
2024-03-14T23:29:51.785Z,44.53
2024-03-14T23:32:18.531Z,45.12
2024-03-14T23:34:45.232Z,45.14
2024-03-14T23:37:12.053Z,44.88
2024-03-14T23:39:38.780Z,45.47
2024-03-14T23:42:05.440Z,45.08
2024-03-14T23:44:32.042Z,44.36
2024-03-14T23:46:58.587Z,44.88
2024-03-14T23:49:25.434Z,44.59
2024-03-14T23:51:52.013Z,44.57
2024-03-14T23:54:18.726Z,44.78
2024-03-14T23:56:45.295Z,45.62
2024-03-14T23:59:11.827Z,45.50
